Time;durP1;ratioP1;P1;durP2;ratioP2;P2;SDS_P1;SDS_P2;PMS_P1;PMS_P2;Temp;Humidity;BMP_temperature;BMP_pressure;BME280_temperature;BME280_humidity;BME280_pressure;Samples;Min_cycle;Max_cycle;Signal;HPM_P1;HPM_P2
2023/03/05 00:01:15;;;;;;;8.52;3.33;;;;;;;14.90;100.00;100827.75;2087012;28;20053;-79
2023/03/05 00:02:38;;;;;;;8.10;3.45;;;;;;;14.91;100.00;100821.53;2084063;28;20045;-80
2023/03/05 00:04:00;;;;;;;8.45;3.05;;;;;;;14.89;100.00;100811.81;2084364;28;20037;-80
2023/03/05 00:05:22;;;;;;;11.77;3.20;;;;;;;14.86;100.00;100812.69;2084729;28;20136;-78
2023/03/05 00:06:43;;;;;;;6.15;2.50;;;;;;;14.86;100.00;100807.38;2094787;28;20087;-78
2023/03/05 00:08:06;;;;;;;8.80;2.97;;;;;;;14.84;100.00;100811.81;2094738;28;20140;-78
2023/03/05 00:09:27;;;;;;;7.07;2.55;;;;;;;14.83;100.00;100811.81;2087319;28;20119;-78
2023/03/05 00:10:57;;;;;;;8.63;3.30;;;;;;;14.79;100.00;100804.72;2088272;28;20064;-79
2023/03/05 00:12:20;;;;;;;9.98;3.25;;;;;;;14.77;100.00;100799.41;2096018;28;20048;-79
2023/03/05 00:13:41;;;;;;;8.85;3.55;;;;;;;14.80;100.00;100796.75;2095582;28;20043;-79
2023/03/05 00:15:04;;;;;;;7.05;2.53;;;;;;;14.84;100.00;100789.66;2094838;28;20036;-78
2023/03/05 00:16:26;;;;;;;9.13;3.40;;;;;;;14.87;100.00;100789.66;2095281;28;20151;-79
2023/03/05 00:17:49;;;;;;;8.52;2.60;;;;;;;14.91;100.00;100789.66;2089520;28;20041;-78
2023/03/05 00:19:10;;;;;;;9.40;2.80;;;;;;;14.96;100.00;100793.22;2092335;28;20044;-78
2023/03/05 00:20:34;;;;;;;5.95;2.65;;;;;;;14.96;100.00;100790.56;2095094;28;20143;-78
2023/03/05 00:21:56;;;;;;;8.30;2.83;;;;;;;14.98;100.00;100785.19;2087027;28;20033;-78
2023/03/05 00:23:18;;;;;;;8.20;2.30;;;;;;;15.00;100.00;100786.09;2092255;28;20040;-78
2023/03/05 00:24:40;;;;;;;9.52;3.00;;;;;;;15.02;100.00;100785.22;2095223;28;20114;-77
2023/03/05 00:26:06;;;;;;;8.23;2.30;;;;;;;15.05;100.00;100777.22;2086753;28;20044;-79
2023/03/05 00:27:28;;;;;;;12.68;2.80;;;;;;;15.08;100.00;100784.31;2093072;28;20048;-79
2023/03/05 00:28:51;;;;;;;8.70;3.13;;;;;;;15.09;97.65;100779.00;2097434;28;20052;-78
2023/03/05 00:30:14;;;;;;;12.65;3.40;;;;;;;15.18;97.19;100777.19;2086828;28;20041;-77
2023/03/05 00:31:37;;;;;;;7.15;2.70;;;;;;;15.21;95.68;100766.53;2084305;28;20353;-78
2023/03/05 00:32:59;;;;;;;7.00;3.13;;;;;;;15.26;92.08;100776.28;2086775;28;20044;-77
2023/03/05 00:34:21;;;;;;;8.75;2.42;;;;;;;15.32;90.93;100775.38;2092385;28;20084;-78
2023/03/05 00:35:46;;;;;;;8.48;2.45;;;;;;;15.36;89.73;100778.00;2086540;28;20148;-79
2023/03/05 00:37:07;;;;;;;9.02;2.55;;;;;;;15.39;90.11;100777.09;2084755;28;20485;-79
2023/03/05 00:38:29;;;;;;;5.53;2.30;;;;;;;15.37;91.22;100771.78;2083983;28;20124;-79
2023/03/05 00:39:52;;;;;;;9.35;2.45;;;;;;;15.38;90.47;100776.22;2092360;28;20076;-79
2023/03/05 00:41:14;;;;;;;10.70;3.03;;;;;;;15.41;90.66;100768.25;2095007;28;20421;-79
2023/03/05 00:42:38;;;;;;;9.90;2.90;;;;;;;15.44;90.64;100775.31;2086255;28;20053;-79
2023/03/05 00:44:00;;;;;;;12.32;3.03;;;;;;;15.44;91.20;100775.31;2086764;28;20056;-78
2023/03/05 00:45:23;;;;;;;10.30;2.80;;;;;;;15.43;91.74;100769.09;2092476;28;20052;-78
2023/03/05 00:46:45;;;;;;;6.72;2.05;;;;;;;15.43;91.54;100762.91;2086781;28;20121;-78
2023/03/05 00:48:06;;;;;;;7.88;3.08;;;;;;;15.47;87.62;100770.00;2083916;28;20068;-78
2023/03/05 00:49:29;;;;;;;10.13;2.80;;;;;;;15.51;88.59;100766.41;2086606;28;20140;-79
2023/03/05 00:50:50;;;;;;;8.35;2.58;;;;;;;15.51;88.75;100780.59;2083767;28;20507;-79
2023/03/05 00:52:13;;;;;;;11.48;3.05;;;;;;;15.53;88.66;100772.66;2092141;28;20056;-78
2023/03/05 00:53:34;;;;;;;9.05;3.00;;;;;;;15.53;88.94;100759.34;2086728;28;20462;-79
2023/03/05 00:54:57;;;;;;;7.80;2.75;;;;;;;15.53;88.63;100762.91;2094940;28;20726;-79
2023/03/05 00:56:21;;;;;;;11.65;2.90;;;;;;;15.58;88.07;100760.22;2089059;28;20049;-78
2023/03/05 00:57:43;;;;;;;9.40;2.90;;;;;;;15.61;88.29;100756.66;2094789;28;20044;-79
2023/03/05 00:59:05;;;;;;;8.18;2.33;;;;;;;15.58;88.25;100754.00;2089166;28;20056;-78
2023/03/05 01:00:27;;;;;;;8.27;3.10;;;;;;;15.56;88.80;100753.16;2083796;28;20515;-79
2023/03/05 01:01:48;;;;;;;9.27;2.90;;;;;;;15.53;89.22;100754.03;2092332;28;20094;-78
2023/03/05 01:03:10;;;;;;;8.50;3.30;;;;;;;15.49;89.98;100761.09;2088981;28;20045;-80
2023/03/05 01:04:32;;;;;;;8.20;2.80;;;;;;;15.48;90.54;100761.13;2086446;28;20139;-80
2023/03/05 01:05:54;;;;;;;10.60;3.10;;;;;;;15.49;90.22;100760.25;2078654;28;20524;-80
2023/03/05 01:07:16;;;;;;;13.27;4.65;;;;;;;15.51;90.18;100755.78;2083877;28;20068;-80
2023/03/05 01:08:38;;;;;;;9.38;3.30;;;;;;;15.53;89.51;100752.25;2086684;28;20402;-80
2023/03/05 01:10:00;;;;;;;;;;;;;;;15.52;88.32;100757.53;2089497;28;20044;-80
2023/03/05 01:11:24;;;;;;;12.00;4.05;;;;;;;15.51;88.95;100761.09;2086168;28;19921;-79
2023/03/05 01:12:47;;;;;;;11.25;3.22;;;;;;;15.51;89.73;100755.78;2084126;28;20089;-80
2023/03/05 01:14:08;;;;;;;8.07;3.63;;;;;;;15.50;90.30;100759.31;2092457;28;20040;-80
2023/03/05 01:15:30;;;;;;;10.80;3.95;;;;;;;15.49;90.96;100762.91;2086439;28;20063;-80
2023/03/05 01:16:52;;;;;;;7.68;3.45;;;;;;;15.49;91.02;100763.75;2092118;28;20539;-80
2023/03/05 01:18:14;;;;;;;9.98;3.45;;;;;;;15.48;91.11;100763.78;2086448;28;20547;-80
2023/03/05 01:19:36;;;;;;;10.38;3.30;;;;;;;15.48;91.13;100764.66;2092282;28;20143;-80
2023/03/05 01:20:58;;;;;;;11.88;4.10;;;;;;;15.47;91.23;100760.25;2086885;28;20167;-80
2023/03/05 01:22:20;;;;;;;9.75;3.13;;;;;;;15.45;91.52;100763.78;2092183;28;20679;-80
2023/03/05 01:23:43;;;;;;;8.18;3.63;;;;;;;15.42;91.02;100759.38;2086709;28;20091;-80
2023/03/05 01:25:05;;;;;;;14.57;4.10;;;;;;;15.40;91.09;100766.47;2092083;28;20033;-80
2023/03/05 01:26:29;;;;;;;4.82;2.50;;;;;;;15.37;90.99;100761.16;2095102;28;20135;-80
2023/03/05 01:27:51;;;;;;;7.18;2.85;;;;;;;15.38;91.51;100762.03;2089267;28;20041;-81
2023/03/05 01:29:13;;;;;;;14.00;3.10;;;;;;;15.39;92.21;100756.72;2084255;28;20041;-81
2023/03/05 01:30:35;;;;;;;11.80;2.70;;;;;;;15.41;92.55;100751.41;2089427;28;20045;-81
2023/03/05 01:31:57;;;;;;;11.18;3.42;;;;;;;15.44;92.60;100748.72;2088649;28;20048;-81
2023/03/05 01:33:20;;;;;;;10.85;3.00;;;;;;;15.44;93.11;100746.94;2092050;28;20049;-81
2023/03/05 01:34:41;;;;;;;10.20;2.92;;;;;;;15.42;93.17;100739.88;2097548;28;20366;-80
2023/03/05 01:36:07;;;;;;;7.82;2.53;;;;;;;15.45;91.69;100737.19;2086492;28;20081;-80
2023/03/05 01:37:28;;;;;;;11.32;2.90;;;;;;;15.45;91.12;100740.72;2095429;28;20056;-81
2023/03/05 01:38:51;;;;;;;7.40;2.30;;;;;;;15.49;87.91;100741.63;2094203;28;20060;-80
2023/03/05 01:40:15;;;;;;;11.27;2.90;;;;;;;15.53;87.07;100744.28;2089004;28;20056;-80
2023/03/05 01:41:39;;;;;;;9.85;2.55;;;;;;;15.53;87.16;100743.38;2095426;28;20520;-80
2023/03/05 01:43:19;;;;;;;10.90;3.15;;;;;;;15.51;87.38;100743.34;2086690;28;20056;-81
2023/03/05 01:45:00;;;;;;;11.13;2.80;;;;;;;15.47;87.27;100748.72;2088452;28;20075;-81
2023/03/05 01:46:31;;;;;;;9.00;3.30;;;;;;;15.46;87.00;100749.59;2097212;28;20052;-80
2023/03/05 01:47:53;;;;;;;9.13;2.60;;;;;;;15.48;85.36;100742.50;2087811;28;20041;-80
2023/03/05 01:49:21;;;;;;;12.65;2.90;;;;;;;15.53;84.40;100743.38;2091925;28;20062;-79
2023/03/05 01:50:43;;;;;;;11.70;3.42;;;;;;;15.55;84.65;100746.94;2097049;28;20048;-79
2023/03/05 01:52:07;;;;;;;9.57;3.25;;;;;;;15.56;85.22;100738.03;2094525;28;20066;-79
2023/03/05 01:53:31;;;;;;;8.85;3.78;;;;;;;15.54;86.06;100737.19;2086135;28;20045;-78
2023/03/05 01:54:55;;;;;;;8.00;2.20;;;;;;;15.53;86.38;100746.06;2086211;28;20048;-79
2023/03/05 01:56:17;;;;;;;7.32;3.13;;;;;;;15.51;85.95;100740.69;2092496;28;20056;-78
2023/03/05 01:57:44;;;;;;;7.55;2.75;;;;;;;15.51;85.76;100740.69;2085935;28;20037;-79
2023/03/05 01:59:05;;;;;;;9.32;2.75;;;;;;;15.51;85.78;100742.47;2092452;28;20063;-78
2023/03/05 02:00:31;;;;;;;11.27;2.70;;;;;;;15.51;85.14;100740.69;2094294;28;20056;-79
2023/03/05 02:01:55;;;;;;;9.52;2.88;;;;;;;15.53;85.18;100744.28;2086462;28;20444;-80
2023/03/05 02:03:18;;;;;;;11.75;2.28;;;;;;;15.53;85.22;100738.06;2083140;28;20048;-80
2023/03/05 02:04:45;;;;;;;8.63;3.03;;;;;;;15.54;85.67;100743.38;2078003;28;20057;-80
2023/03/05 02:06:06;;;;;;;13.27;2.72;;;;;;;15.55;85.94;100746.94;2076827;28;20049;-80
2023/03/05 02:07:30;;;;;;;11.50;3.08;;;;;;;15.56;85.95;100739.84;2074728;28;20056;-80
2023/03/05 02:08:51;;;;;;;8.30;2.80;;;;;;;15.55;85.62;100733.63;2084147;28;20050;-80
2023/03/05 02:10:19;;;;;;;9.68;2.67;;;;;;;15.55;85.50;100746.94;2090014;28;20132;-81
2023/03/05 02:11:41;;;;;;;8.15;2.78;;;;;;;15.54;86.05;100759.34;2078770;28;20071;-81
2023/03/05 02:13:08;;;;;;;12.32;4.20;;;;;;;15.51;86.61;100756.66;2075787;28;20030;-81
2023/03/05 02:14:32;;;;;;;10.07;3.70;;;;;;;15.47;87.43;100752.25;2076484;28;20046;-80
2023/03/05 02:15:57;;;;;;;10.63;3.55;;;;;;;15.38;89.15;100751.41;2083707;28;20053;-80
2023/03/05 02:17:20;;;;;;;9.68;3.28;;;;;;;15.24;90.81;100753.22;2078562;28;20111;-79
2023/03/05 02:18:41;;;;;;;8.93;2.70;;;;;;;15.07;92.53;100751.53;2083479;28;20494;-79
2023/03/05 02:20:08;;;;;;;8.70;3.15;;;;;;;14.92;94.26;100748.00;2088566;28;20044;-78
2023/03/05 02:21:38;;;;;;;11.75;4.80;;;;;;;14.78;96.03;100756.00;2088544;28;20041;-79
2023/03/05 02:23:00;;;;;;;16.98;6.38;;;;;;;14.63;97.83;100759.59;2078644;28;20053;-79
2023/03/05 02:24:35;;;;;;;12.13;4.90;;;;;;;14.49;99.58;100758.72;2075030;28;20045;-79
2023/03/05 02:25:56;;;;;;;25.13;8.90;;;;;;;14.39;100.00;100761.34;2079537;28;20060;-78
2023/03/05 02:27:23;;;;;;;17.17;6.90;;;;;;;14.33;100.00;100763.09;2091277;28;20079;-78
2023/03/05 02:28:48;;;;;;;25.05;9.20;;;;;;;14.35;100.00;100760.44;2080089;28;20110;-78
2023/03/05 02:30:11;;;;;;;10.35;3.60;;;;;;;14.38;100.00;100754.25;2086288;28;20240;-78
2023/03/05 02:31:32;;;;;;;17.33;6.72;;;;;;;14.44;100.00;100755.16;2078024;28;20092;-78
2023/03/05 02:32:56;;;;;;;31.25;11.98;;;;;;;14.48;100.00;100753.41;2091480;28;20123;-78
2023/03/05 02:34:18;;;;;;;20.42;6.93;;;;;;;14.48;100.00;100753.41;2080159;28;20053;-78
2023/03/05 02:35:39;;;;;;;11.25;3.78;;;;;;;14.52;100.00;100758.69;2082999;28;20142;-77
2023/03/05 02:37:04;;;;;;;11.38;3.63;;;;;;;14.56;100.00;100754.28;2085626;28;20112;-78
2023/03/05 02:38:27;;;;;;;10.20;4.30;;;;;;;14.58;100.00;100748.06;2077745;28;20041;-78
2023/03/05 02:39:49;;;;;;;9.95;3.47;;;;;;;14.62;100.00;100759.59;2077653;28;20049;-78
2023/03/05 02:41:11;;;;;;;10.25;3.35;;;;;;;14.66;100.00;100761.34;2082949;28;20409;-79
2023/03/05 02:42:34;;;;;;;10.18;3.92;;;;;;;14.69;100.00;100756.03;2077320;28;20046;-78
2023/03/05 02:43:55;;;;;;;22.77;8.60;;;;;;;14.77;99.89;100748.91;2083619;28;20068;-79
2023/03/05 02:45:18;;;;;;;13.38;4.35;;;;;;;14.83;99.91;100753.34;2077569;28;20390;-79
2023/03/05 02:46:39;;;;;;;19.58;7.78;;;;;;;14.86;100.00;100750.69;2091557;28;20374;-79
2023/03/05 02:48:02;;;;;;;17.88;6.00;;;;;;;14.85;100.00;100757.75;2080177;28;20050;-79
2023/03/05 02:49:24;;;;;;;13.80;4.75;;;;;;;14.86;100.00;100756.00;2077231;28;20524;-79
2023/03/05 02:50:46;;;;;;;7.68;3.13;;;;;;;14.79;100.00;100756.88;2083199;28;20057;-79
2023/03/05 02:52:10;;;;;;;9.98;2.90;;;;;;;14.67;100.00;100763.13;2094006;28;20628;-79
2023/03/05 02:53:32;;;;;;;15.38;5.45;;;;;;;14.57;100.00;100762.22;2080034;28;20049;-79
2023/03/05 02:54:54;;;;;;;7.85;3.05;;;;;;;14.49;100.00;100757.81;2083171;28;20589;-79
2023/03/05 02:56:18;;;;;;;7.40;2.75;;;;;;;14.44;100.00;100759.59;2086016;28;20047;-79
2023/03/05 02:57:40;;;;;;;9.60;3.10;;;;;;;14.38;100.00;100757.81;2077341;28;20134;-79
2023/03/05 02:59:01;;;;;;;8.68;2.97;;;;;;;14.33;100.00;100751.59;2083312;28;20045;-79
2023/03/05 03:00:25;;;;;;;6.85;2.78;;;;;;;14.27;100.00;100755.13;2077590;28;20135;-79
2023/03/05 03:01:47;;;;;;;7.40;2.90;;;;;;;14.20;100.00;100760.44;2085829;28;20148;-78
2023/03/05 03:03:08;;;;;;;7.72;2.72;;;;;;;14.17;100.00;100752.47;2088056;28;20045;-79
2023/03/05 03:04:31;;;;;;;7.70;3.13;;;;;;;14.14;100.00;100757.78;2085543;28;20067;-79
2023/03/05 03:05:52;;;;;;;11.90;2.95;;;;;;;14.13;100.00;100758.66;2093805;28;20459;-78
2023/03/05 03:07:17;;;;;;;8.40;2.60;;;;;;;14.12;100.00;100756.88;2080123;28;20037;-78
2023/03/05 03:08:38;;;;;;;9.15;2.65;;;;;;;14.07;100.00;100753.34;2091574;28;20048;-79
2023/03/05 03:10:00;;;;;;;8.30;2.97;;;;;;;14.04;100.00;100754.25;2089988;28;20082;-79
2023/03/05 03:11:22;;;;;;;13.18;3.85;;;;;;;14.01;100.00;100754.22;2085710;28;20048;-79
2023/03/05 03:12:44;;;;;;;10.43;3.50;;;;;;;14.02;100.00;100755.09;2077283;28;20133;-79
2023/03/05 03:14:06;;;;;;;13.05;3.50;;;;;;;14.02;100.00;100756.00;2082526;28;20152;-79
2023/03/05 03:15:28;;;;;;;12.32;3.67;;;;;;;14.03;100.00;100741.84;2094150;28;20097;-79
2023/03/05 03:16:50;;;;;;;12.52;3.65;;;;;;;14.04;100.00;100746.28;2088081;28;20044;-79
2023/03/05 03:18:11;;;;;;;29.50;20.17;;;;;;;14.05;100.00;100750.66;2085576;28;20448;-79
2023/03/05 03:19:34;;;;;;;9.35;3.38;;;;;;;14.03;100.00;100752.47;2077209;28;20038;-79
2023/03/05 03:20:55;;;;;;;11.50;3.38;;;;;;;14.03;100.00;100752.47;2083059;28;20053;-79
2023/03/05 03:22:19;;;;;;;10.18;2.75;;;;;;;13.99;100.00;100745.34;2085526;28;20079;-78
2023/03/05 03:23:41;;;;;;;12.48;3.03;;;;;;;13.97;100.00;100741.84;2094361;28;20845;-79
2023/03/05 03:25:03;;;;;;;9.70;3.17;;;;;;;13.97;100.00;100733.88;2088178;28;20086;-78
2023/03/05 03:26:26;;;;;;;9.95;3.17;;;;;;;13.95;100.00;100738.28;2085448;28;20037;-78
2023/03/05 03:27:47;;;;;;;10.52;3.38;;;;;;;13.92;100.00;100736.50;2085688;28;20044;-78
2023/03/05 03:29:09;;;;;;;10.60;4.18;;;;;;;13.92;100.00;100744.47;2077208;28;20064;-78
2023/03/05 03:30:31;;;;;;;9.77;3.25;;;;;;;13.91;100.00;100742.69;2082812;28;20621;-78
2023/03/05 03:31:53;;;;;;;10.00;3.28;;;;;;;13.90;100.00;100746.25;2085479;28;20051;-78
2023/03/05 03:33:16;;;;;;;15.35;6.60;;;;;;;13.88;100.00;100748.00;2077290;28;20042;-78
2023/03/05 03:34:39;;;;;;;22.63;9.77;;;;;;;13.89;100.00;100751.56;2085633;28;20106;-77
2023/03/05 03:36:02;;;;;;;15.05;5.82;;;;;;;13.89;100.00;100748.91;2085411;28;20125;-79
2023/03/05 03:37:26;;;;;;;11.25;4.10;;;;;;;13.88;100.00;100749.78;2085435;28;20052;-78
2023/03/05 03:38:48;;;;;;;9.30;3.50;;;;;;;13.82;100.00;100748.00;2085448;28;20068;-79
2023/03/05 03:40:11;;;;;;;9.60;3.60;;;;;;;13.80;100.00;100752.41;2077394;28;20533;-79
2023/03/05 03:41:33;;;;;;;12.35;3.55;;;;;;;13.77;100.00;100746.22;2083030;28;20052;-79
2023/03/05 03:42:56;;;;;;;11.57;3.50;;;;;;;13.75;100.00;100745.31;2085627;28;20041;-79
2023/03/05 03:44:19;;;;;;;7.43;3.25;;;;;;;13.73;100.00;100747.06;2085578;28;20435;-79
2023/03/05 03:45:41;;;;;;;8.90;3.42;;;;;;;13.70;100.00;100747.09;2093518;28;20060;-79
2023/03/05 03:47:04;;;;;;;10.43;3.63;;;;;;;13.67;100.00;100739.09;2088189;28;20041;-79
2023/03/05 03:48:26;;;;;;;12.93;6.93;;;;;;;13.65;100.00;100741.78;2085710;28;20080;-79
2023/03/05 03:49:47;;;;;;;12.10;5.93;;;;;;;13.63;100.00;100738.22;2093745;28;20049;-79
2023/03/05 03:51:10;;;;;;;10.10;3.45;;;;;;;13.65;100.00;100738.25;2088409;28;20081;-79
2023/03/05 03:52:32;;;;;;;15.55;4.85;;;;;;;13.72;100.00;100732.06;2085103;28;20041;-79
2023/03/05 03:53:55;;;;;;;12.32;4.80;;;;;;;13.77;100.00;100735.59;2093641;28;20135;-80
2023/03/05 03:55:18;;;;;;;8.65;3.95;;;;;;;13.75;100.00;100732.94;2080036;28;20062;-79
2023/03/05 03:56:40;;;;;;;11.07;3.67;;;;;;;13.70;100.00;100733.81;2091099;28;20082;-79
2023/03/05 03:58:03;;;;;;;9.80;3.40;;;;;;;13.64;100.00;100736.47;2079535;28;20037;-79
2023/03/05 03:59:24;;;;;;;11.13;3.78;;;;;;;13.55;100.00;100729.34;2091031;28;20039;-79
2023/03/05 04:00:46;;;;;;;13.65;3.45;;;;;;;13.49;100.00;100734.66;2087896;28;20751;-79
2023/03/05 04:02:08;;;;;;;12.63;4.57;;;;;;;13.45;100.00;100731.09;2090839;28;20044;-78
2023/03/05 04:03:30;;;;;;;13.35;5.95;;;;;;;13.45;100.00;100733.75;2093840;28;20727;-78
2023/03/05 04:04:52;;;;;;;14.40;5.72;;;;;;;13.44;100.00;100725.78;2084981;28;20150;-78
2023/03/05 04:06:15;;;;;;;15.57;6.32;;;;;;;13.48;100.00;100728.44;2082733;28;20110;-79
2023/03/05 04:07:38;;;;;;;13.95;4.95;;;;;;;13.51;100.00;100725.81;2082974;28;20045;-79
2023/03/05 04:09:00;;;;;;;11.85;3.65;;;;;;;13.53;100.00;100723.16;2090993;28;20052;-79
2023/03/05 04:10:22;;;;;;;12.75;5.63;;;;;;;13.55;100.00;100721.41;2092732;28;20045;-77
2023/03/05 04:11:44;;;;;;;15.57;6.22;;;;;;;13.57;100.00;100722.28;2093682;28;20076;-78
2023/03/05 04:13:06;;;;;;;13.48;6.80;;;;;;;13.57;100.00;100724.94;2087717;28;20445;-79
2023/03/05 04:14:29;;;;;;;18.52;7.57;;;;;;;13.55;100.00;100724.94;2085484;28;20056;-79
2023/03/05 04:15:50;;;;;;;28.35;13.90;;;;;;;13.55;100.00;100729.34;2085665;28;20567;-78
2023/03/05 04:17:13;;;;;;;21.65;8.38;;;;;;;13.55;100.00;100730.25;2085133;28;20079;-78
2023/03/05 04:18:36;;;;;;;13.40;5.35;;;;;;;13.53;100.00;100731.09;2077512;28;20050;-79
2023/03/05 04:19:58;;;;;;;11.48;3.28;;;;;;;13.48;100.00;100733.75;2077320;28;20444;-78
2023/03/05 04:21:19;;;;;;;15.45;6.43;;;;;;;13.47;100.00;100731.97;2085543;28;20048;-79
2023/03/05 04:22:43;;;;;;;15.07;4.65;;;;;;;13.49;100.00;100743.50;2077069;28;20517;-78
2023/03/05 04:24:07;;;;;;;14.75;3.58;;;;;;;13.52;100.00;100732.88;2083090;28;20052;-78
2023/03/05 04:25:29;;;;;;;7.35;3.55;;;;;;;13.50;100.00;100732.00;2079909;28;20164;-79
2023/03/05 04:26:51;;;;;;;10.23;2.80;;;;;;;13.46;100.00;100729.31;2076295;28;20132;-79
2023/03/05 04:28:14;;;;;;;10.40;3.30;;;;;;;13.39;100.00;100733.72;2084149;28;20083;-79
2023/03/05 04:29:37;;;;;;;12.60;3.40;;;;;;;13.34;100.00;100724.88;2089512;28;20072;-79
2023/03/05 04:30:59;;;;;;;9.15;3.00;;;;;;;13.30;100.00;100723.09;2095202;28;20032;-79
2023/03/05 04:32:22;;;;;;;9.90;3.38;;;;;;;13.28;100.00;100714.22;2081119;28;20048;-79
2023/03/05 04:33:44;;;;;;;11.70;3.25;;;;;;;13.31;100.00;100716.91;2084384;28;20478;-78
2023/03/05 04:35:05;;;;;;;10.35;3.20;;;;;;;13.34;100.00;100716.91;2078445;28;20274;-79
2023/03/05 04:36:28;;;;;;;10.02;3.13;;;;;;;13.35;100.00;100713.38;2084265;28;20602;-79
2023/03/05 04:37:51;;;;;;;9.57;3.00;;;;;;;13.38;100.00;100709.88;2086823;28;20125;-79
2023/03/05 04:39:14;;;;;;;11.20;4.03;;;;;;;13.40;100.00;100711.63;2078240;28;20041;-79
2023/03/05 04:40:36;;;;;;;11.43;3.65;;;;;;;13.41;100.00;100708.09;2084119;28;20533;-79
2023/03/05 04:41:57;;;;;;;10.70;3.70;;;;;;;13.41;100.00;100712.50;2078298;28;20536;-79
2023/03/05 04:43:20;;;;;;;13.02;4.18;;;;;;;13.40;100.00;100711.63;2086770;28;20076;-78
2023/03/05 04:44:42;;;;;;;15.95;4.90;;;;;;;13.42;100.00;100717.81;2086541;28;20420;-78
2023/03/05 04:46:05;;;;;;;10.05;3.92;;;;;;;13.44;100.00;100710.78;2094913;28;20055;-78
2023/03/05 04:47:26;;;;;;;10.32;3.22;;;;;;;13.46;100.00;100711.63;2089354;28;20564;-78
2023/03/05 04:48:48;;;;;;;11.82;3.00;;;;;;;13.46;100.00;100708.09;2085994;28;20605;-79
2023/03/05 04:50:11;;;;;;;8.88;3.20;;;;;;;13.45;100.00;100709.91;2086607;28;20493;-78
2023/03/05 04:51:33;;;;;;;10.27;3.53;;;;;;;13.46;100.00;100706.34;2078633;28;20053;-78
2023/03/05 04:52:56;;;;;;;12.18;4.38;;;;;;;13.48;100.00;100701.94;2083834;28;20051;-77
2023/03/05 04:54:18;;;;;;;12.93;3.58;;;;;;;13.50;100.00;100707.25;2078444;28;20405;-78
2023/03/05 04:55:41;;;;;;;10.77;3.45;;;;;;;13.50;100.00;100705.47;2083767;28;20049;-78
2023/03/05 04:57:03;;;;;;;8.60;3.15;;;;;;;13.53;100.00;100701.94;2080889;28;20053;-78
2023/03/05 04:58:25;;;;;;;11.48;3.22;;;;;;;13.52;100.00;100700.19;2084022;28;20048;-78
2023/03/05 04:59:46;;;;;;;16.98;4.10;;;;;;;13.51;100.00;100709.03;2094774;28;20049;-77
2023/03/05 05:01:08;;;;;;;7.53;3.40;;;;;;;13.49;100.00;100695.75;2089160;28;20053;-78
2023/03/05 05:02:29;;;;;;;9.82;3.42;;;;;;;13.48;100.00;100693.97;2097183;28;20536;-78
2023/03/05 05:03:52;;;;;;;12.38;4.63;;;;;;;13.47;100.00;100701.91;2094698;28;20078;-78
2023/03/05 05:05:18;;;;;;;9.73;4.55;;;;;;;13.47;100.00;100702.81;2094734;28;20057;-78
2023/03/05 05:06:39;;;;;;;9.20;4.15;;;;;;;13.47;100.00;100702.81;2086749;28;20045;-78
2023/03/05 05:08:03;;;;;;;10.52;3.67;;;;;;;13.48;100.00;100701.94;2094734;28;20132;-78
2023/03/05 05:09:25;;;;;;;9.90;3.05;;;;;;;13.47;100.00;100702.81;2094545;28;20060;-78
2023/03/05 05:10:55;;;;;;;9.88;3.05;;;;;;;13.48;100.00;100693.09;2090885;28;20045;-79
2023/03/05 05:12:17;;;;;;;11.27;3.50;;;;;;;13.48;100.00;100687.78;2081025;28;20076;-78
2023/03/05 05:13:38;;;;;;;8.25;3.20;;;;;;;13.50;100.00;100683.38;2092043;28;20072;-78
2023/03/05 05:15:01;;;;;;;13.52;3.05;;;;;;;13.50;100.00;100684.25;2081042;28;20029;-78
2023/03/05 05:16:23;;;;;;;9.05;3.42;;;;;;;13.52;100.00;100684.28;2083709;28;20464;-78
2023/03/05 05:17:45;;;;;;;9.05;3.03;;;;;;;13.54;100.00;100694.00;2086390;28;20041;-78
2023/03/05 05:19:07;;;;;;;9.65;4.00;;;;;;;13.51;100.00;100694.00;2086625;28;20052;-79
2023/03/05 05:20:29;;;;;;;10.40;4.43;;;;;;;13.43;100.00;100695.75;2094702;28;20048;-79
2023/03/05 05:21:51;;;;;;;9.80;3.53;;;;;;;13.38;100.00;100696.59;2089050;28;20139;-78
2023/03/05 05:23:15;;;;;;;8.82;3.53;;;;;;;13.34;100.00;100702.75;2086247;28;20041;-78
2023/03/05 05:24:37;;;;;;;20.55;7.18;;;;;;;13.31;100.00;100698.34;2078419;28;20049;-78
2023/03/05 05:26:00;;;;;;;11.70;4.47;;;;;;;13.31;100.00;100693.06;2086277;28;20044;-78
2023/03/05 05:27:23;;;;;;;14.40;6.45;;;;;;;13.40;100.00;100706.31;2078311;28;20044;-77
2023/03/05 05:28:44;;;;;;;11.05;5.05;;;;;;;13.50;100.00;100709.91;2092210;28;20143;-78
2023/03/05 05:30:08;;;;;;;14.63;6.45;;;;;;;13.60;100.00;100701.06;2088600;28;20059;-79
2023/03/05 05:31:31;;;;;;;16.85;5.05;;;;;;;13.68;100.00;100701.09;2094928;28;20133;-78
2023/03/05 05:32:52;;;;;;;9.25;3.22;;;;;;;13.73;100.00;100696.66;2088756;28;20485;-78
2023/03/05 05:34:15;;;;;;;19.10;4.45;;;;;;;13.77;100.00;100699.34;2086259;28;20041;-79
2023/03/05 05:35:38;;;;;;;15.52;5.47;;;;;;;13.82;100.00;100696.69;2095053;28;20520;-79
2023/03/05 05:37:01;;;;;;;8.70;3.58;;;;;;;13.87;100.00;100686.97;2089656;28;20045;-79
2023/03/05 05:38:24;;;;;;;12.00;3.63;;;;;;;13.93;100.00;100693.16;2082029;28;20049;-79
2023/03/05 05:39:49;;;;;;;11.95;4.22;;;;;;;13.98;100.00;100685.19;2096567;28;20037;-78
2023/03/05 05:41:11;;;;;;;10.85;3.67;;;;;;;14.04;100.00;100684.34;2080537;28;20429;-78
2023/03/05 05:42:34;;;;;;;9.43;3.85;;;;;;;14.08;100.00;100683.44;2075743;28;20119;-79
2023/03/05 05:43:57;;;;;;;9.73;3.88;;;;;;;14.12;100.00;100682.53;2083659;28;20409;-78
2023/03/05 05:45:19;;;;;;;36.08;16.88;;;;;;;14.16;100.00;100689.63;2086314;28;20050;-78
2023/03/05 05:46:41;;;;;;;26.60;11.93;;;;;;;14.21;100.00;100686.09;2077938;28;20493;-79
2023/03/05 05:48:04;;;;;;;15.02;6.95;;;;;;;14.26;100.00;100692.28;2078134;28;20784;-79
2023/03/05 05:49:25;;;;;;;15.25;6.30;;;;;;;14.29;100.00;100689.63;2069958;28;20183;-79
2023/03/05 05:50:48;;;;;;;15.18;6.38;;;;;;;14.32;100.00;100696.69;2080931;28;20041;-78
2023/03/05 05:52:09;;;;;;;14.50;5.50;;;;;;;14.33;100.00;100694.03;2077979;28;20049;-78
2023/03/05 05:53:33;;;;;;;13.40;5.70;;;;;;;14.38;100.00;100695.84;2083129;28;20462;-78
2023/03/05 05:54:55;;;;;;;12.23;5.25;;;;;;;14.44;100.00;100701.16;2094476;28;20041;-79
2023/03/05 05:56:17;;;;;;;12.18;5.30;;;;;;;14.51;100.00;100700.25;2080628;28;20069;-79
2023/03/05 05:57:39;;;;;;;;;;;;;;;14.52;100.00;100699.38;2083915;28;20053;-79
2023/03/05 05:59:02;;;;;;;9.82;4.80;;;;;;;14.60;100.00;100702.91;2085874;28;20402;-79
2023/03/05 06:00:24;;;;;;;13.70;4.97;;;;;;;14.68;100.00;100694.03;2085755;28;20056;-79
2023/03/05 06:01:47;;;;;;;12.18;4.97;;;;;;;14.80;100.00;100706.41;2080191;28;20056;-79
2023/03/05 06:03:10;;;;;;;18.60;6.03;;;;;;;14.91;100.00;100711.66;2083747;28;20053;-79
2023/03/05 06:04:31;;;;;;;14.63;6.68;;;;;;;15.01;100.00;100706.34;2078070;28;20095;-79
2023/03/05 06:05:54;;;;;;;13.57;6.40;;;;;;;15.11;100.00;100713.38;2091420;28;20127;-78
2023/03/05 06:07:17;;;;;;;13.45;6.82;;;;;;;15.22;100.00;100701.84;2088845;28;20048;-79
2023/03/05 06:08:41;;;;;;;12.05;6.13;;;;;;;15.29;100.00;100703.59;2094471;28;20048;-79
2023/03/05 06:10:03;;;;;;;13.10;6.15;;;;;;;15.38;100.00;100704.41;2082903;28;20517;-79
2023/03/05 06:11:26;;;;;;;11.82;5.63;;;;;;;15.49;100.00;100707.88;2100179;28;20052;-79
2023/03/05 06:12:47;;;;;;;15.88;7.50;;;;;;;15.60;100.00;100705.22;2096722;28;20044;-79
2023/03/05 06:14:11;;;;;;;22.83;8.90;;;;;;;15.69;100.00;100701.59;2085905;28;20069;-78
2023/03/05 06:15:34;;;;;;;19.88;9.65;;;;;;;15.70;100.00;100706.91;2083917;28;20107;-80
2023/03/05 06:16:55;;;;;;;21.73;10.93;;;;;;;15.77;100.00;100703.31;2083467;28;20037;-78
2023/03/05 06:18:18;;;;;;;20.58;10.20;;;;;;;15.87;100.00;100712.16;2091320;28;20052;-79
2023/03/05 06:19:40;;;;;;;19.10;8.93;;;;;;;15.97;100.00;100708.50;2094164;28;20056;-79